createdAt,value
2017-09-13T00:03:21.667Z,72.10
2017-09-13T00:08:49.855Z,72.20
2017-09-13T00:14:18.010Z,72.20
2017-09-13T00:19:46.164Z,72.20
2017-09-13T00:25:14.311Z,72.10
2017-09-13T00:30:43.219Z,72.10
2017-09-13T00:36:11.371Z,72.10
2017-09-13T00:41:39.532Z,72.00
2017-09-13T00:47:07.718Z,72.20
2017-09-13T00:52:36.834Z,72.20
2017-09-13T00:58:05.002Z,72.00
2017-09-13T01:03:33.164Z,72.10
2017-09-13T01:09:01.311Z,72.00
2017-09-13T01:14:30.011Z,72.00
2017-09-13T01:19:59.075Z,72.10
2017-09-13T01:25:27.227Z,72.00
2017-09-13T01:30:55.361Z,71.90
2017-09-13T01:36:23.555Z,72.00
2017-09-13T01:41:51.701Z,71.90
2017-09-13T01:47:19.858Z,71.80
2017-09-13T01:52:47.997Z,71.70
2017-09-13T01:58:18.104Z,71.50
2017-09-13T02:03:46.255Z,71.40
2017-09-13T02:09:14.414Z,71.20
2017-09-13T02:14:42.629Z,71.10
2017-09-13T02:20:11.766Z,70.90
2017-09-13T02:25:40.668Z,70.70
2017-09-13T02:31:08.794Z,70.70
2017-09-13T02:36:37.708Z,70.40
2017-09-13T02:42:05.927Z,70.30
2017-09-13T02:47:34.066Z,70.20
2017-09-13T02:53:02.232Z,70.10
2017-09-13T02:58:30.473Z,70.10
2017-09-13T03:03:59.458Z,69.80
2017-09-13T03:09:27.599Z,69.80
2017-09-13T03:14:55.785Z,69.70
2017-09-13T03:20:23.929Z,69.60
2017-09-13T03:25:52.086Z,69.50
2017-09-13T03:31:20.987Z,69.30
2017-09-13T03:36:49.125Z,69.20
2017-09-13T03:42:17.272Z,69.20
2017-09-13T03:47:46.258Z,69.20
2017-09-13T03:53:14.393Z,69.10
2017-09-13T03:58:42.600Z,69.60
2017-09-13T04:04:10.826Z,69.90
2017-09-13T04:09:39.738Z,69.80
2017-09-13T04:15:08.689Z,70.70
2017-09-13T04:20:36.885Z,70.70
2017-09-13T04:26:05.061Z,70.60
2017-09-13T04:31:33.246Z,70.60
2017-09-13T04:37:01.480Z,70.30
2017-09-13T04:42:29.634Z,70.30
2017-09-13T04:47:58.131Z,70.50
2017-09-13T04:53:27.060Z,70.80
2017-09-13T04:59:03.258Z,70.80
2017-09-13T05:04:31.420Z,71.00
2017-09-13T05:10:00.334Z,71.00
2017-09-13T05:15:28.523Z,71.30
2017-09-13T05:20:56.700Z,71.60
2017-09-13T05:26:25.848Z,71.30
2017-09-13T05:31:53.961Z,71.30
2017-09-13T05:37:22.117Z,71.40
2017-09-13T05:42:50.261Z,71.40
2017-09-13T05:48:18.415Z,71.50
2017-09-13T05:53:47.317Z,71.30
2017-09-13T05:59:15.455Z,71.30
2017-09-13T06:04:43.598Z,71.20
2017-09-13T06:10:12.509Z,69.70
2017-09-13T06:15:40.640Z,69.70
2017-09-13T06:21:09.581Z,69.30
2017-09-13T06:26:37.750Z,69.10
2017-09-13T06:32:05.924Z,68.90
2017-09-13T06:37:34.076Z,69.00
2017-09-13T06:43:03.001Z,68.90
2017-09-13T06:48:31.171Z,68.70
2017-09-13T06:53:59.314Z,68.60
2017-09-13T06:59:27.559Z,68.30
2017-09-13T07:04:55.702Z,67.80
2017-09-13T07:10:23.863Z,67.80
2017-09-13T07:15:52.784Z,67.90
2017-09-13T07:21:20.959Z,67.80
2017-09-13T07:26:49.125Z,67.80
2017-09-13T07:32:17.265Z,67.30
2017-09-13T07:37:45.412Z,66.90
2017-09-13T07:43:13.544Z,66.70
2017-09-13T07:48:41.699Z,66.10
2017-09-13T07:54:09.829Z,65.90
2017-09-13T07:59:38.753Z,65.00
2017-09-13T08:05:06.895Z,64.90
2017-09-13T08:10:35.045Z,64.80
2017-09-13T08:16:03.255Z,65.10
2017-09-13T08:21:31.407Z,65.30
2017-09-13T08:26:59.590Z,64.80
2017-09-13T08:32:28.526Z,64.70
2017-09-13T08:37:56.718Z,64.70
2017-09-13T08:43:24.869Z,64.50
2017-09-13T08:48:53.060Z,64.40
2017-09-13T08:54:21.251Z,64.30
2017-09-13T08:59:49.407Z,64.10
2017-09-13T09:05:17.545Z,64.20
2017-09-13T09:10:45.690Z,64.10
2017-09-13T09:16:14.604Z,64.30
2017-09-13T09:21:42.729Z,64.30
2017-09-13T09:27:10.866Z,63.50
2017-09-13T09:32:39.785Z,63.70
2017-09-13T09:38:07.938Z,63.70
2017-09-13T09:43:36.846Z,62.90
2017-09-13T09:49:05.003Z,62.90
2017-09-13T09:54:33.190Z,63.30
2017-09-13T10:00:01.342Z,63.00
2017-09-13T10:05:30.317Z,62.50
2017-09-13T10:10:59.450Z,62.50
2017-09-13T10:16:27.616Z,63.10
2017-09-13T10:21:55.816Z,61.40
2017-09-13T10:27:24.037Z,61.60
2017-09-13T10:32:52.170Z,61.70
2017-09-13T10:38:20.316Z,61.80
2017-09-13T10:43:49.259Z,62.10
2017-09-13T10:49:17.465Z,62.30
2017-09-13T10:54:45.607Z,62.40
2017-09-13T11:00:13.751Z,63.90
2017-09-13T11:05:42.681Z,64.40
2017-09-13T11:11:10.842Z,64.30
2017-09-13T11:16:40.941Z,64.70
2017-09-13T11:22:09.087Z,64.70
2017-09-13T11:27:37.265Z,64.60
2017-09-13T11:33:05.440Z,64.00
2017-09-13T11:38:33.621Z,63.50
2017-09-13T11:44:01.805Z,62.50
2017-09-13T11:49:31.006Z,61.80
2017-09-13T11:54:59.888Z,59.60
2017-09-13T12:00:28.061Z,58.90
2017-09-13T12:05:56.238Z,59.00
2017-09-13T12:11:24.547Z,58.20
2017-09-13T12:16:54.630Z,58.80
2017-09-13T12:22:22.829Z,58.20
2017-09-13T12:27:50.987Z,57.70
2017-09-13T12:33:19.178Z,57.40
2017-09-13T12:38:47.349Z,57.50
2017-09-13T12:44:16.316Z,57.00
2017-09-13T12:49:44.475Z,57.00
2017-09-13T12:55:12.625Z,56.40
2017-09-13T13:00:40.953Z,57.10
2017-09-13T13:06:09.126Z,57.80
2017-09-13T13:11:37.299Z,58.50
2017-09-13T13:17:05.492Z,58.80
2017-09-13T13:22:34.418Z,60.00
2017-09-13T13:28:05.170Z,60.00
2017-09-13T13:33:41.048Z,60.80
2017-09-13T13:39:11.054Z,61.60
2017-09-13T13:44:39.215Z,61.60
2017-09-13T13:50:07.356Z,62.20
2017-09-13T13:55:35.524Z,62.80
2017-09-13T14:01:03.679Z,63.70
2017-09-13T14:06:31.872Z,63.80
2017-09-13T14:12:00.041Z,63.80
2017-09-13T14:17:28.210Z,63.70
2017-09-13T14:22:56.365Z,63.40
2017-09-13T14:28:24.531Z,62.60
2017-09-13T14:33:55.442Z,63.20
2017-09-13T14:39:23.568Z,63.20
2017-09-13T14:44:51.748Z,63.30
2017-09-13T14:50:20.019Z,63.80
2017-09-13T14:55:48.247Z,64.00
2017-09-13T15:01:17.238Z,64.60
2017-09-13T15:06:45.437Z,65.10
2017-09-13T15:12:14.359Z,66.90
2017-09-13T15:17:42.526Z,66.90
2017-09-13T15:23:10.960Z,67.40
2017-09-13T15:28:40.338Z,69.10
2017-09-13T15:34:10.503Z,69.20
2017-09-13T15:39:39.417Z,70.90
2017-09-13T15:45:08.794Z,70.80
2017-09-13T15:50:36.962Z,71.70
2017-09-13T15:56:05.536Z,72.30
2017-09-13T16:01:33.932Z,73.30
2017-09-13T16:07:02.110Z,74.10
2017-09-13T16:12:30.387Z,74.90
2017-09-13T16:17:58.600Z,75.70
2017-09-13T16:23:27.526Z,75.90
2017-09-13T16:28:56.497Z,76.20
2017-09-13T16:34:25.432Z,76.20
2017-09-13T16:39:53.558Z,75.70
2017-09-13T16:45:21.762Z,75.50
2017-09-13T16:50:50.876Z,75.30
2017-09-13T16:56:19.872Z,74.50
2017-09-13T17:01:48.633Z,74.50
2017-09-13T17:07:16.790Z,74.10
2017-09-13T17:12:45.702Z,74.30
2017-09-13T17:18:13.841Z,74.30
2017-09-13T17:23:41.988Z,74.10
2017-09-13T17:29:10.292Z,73.50
2017-09-13T17:34:38.443Z,73.10
2017-09-13T17:40:06.629Z,73.10
2017-09-13T17:45:34.787Z,72.40
2017-09-13T17:51:03.002Z,72.00
2017-09-13T17:56:32.134Z,71.20
2017-09-13T18:02:01.275Z,70.20
2017-09-13T18:07:30.561Z,70.20
2017-09-13T18:13:00.216Z,70.00
2017-09-13T18:18:29.691Z,69.30
2017-09-13T18:23:58.664Z,69.00
2017-09-13T18:29:26.812Z,69.00
2017-09-13T18:34:54.986Z,69.30
2017-09-13T18:40:23.292Z,68.40
2017-09-13T18:45:51.426Z,68.30
2017-09-13T18:51:19.582Z,68.30
2017-09-13T18:56:51.582Z,68.10
2017-09-13T19:02:19.774Z,68.10
2017-09-13T19:07:49.719Z,68.20
2017-09-13T19:13:18.001Z,67.80
2017-09-13T19:18:46.381Z,67.50
2017-09-13T19:24:14.533Z,67.00
2017-09-13T19:29:42.851Z,66.20
2017-09-13T19:35:11.963Z,65.90
2017-09-13T19:40:43.362Z,65.70
2017-09-13T19:46:12.780Z,64.80
2017-09-13T19:51:42.274Z,64.30
2017-09-13T19:57:11.879Z,63.50
2017-09-13T20:02:40.812Z,63.20
2017-09-13T20:08:08.963Z,63.10
2017-09-13T20:13:37.151Z,62.70
2017-09-13T20:19:05.306Z,62.60
2017-09-13T20:24:33.496Z,62.10
2017-09-13T20:30:01.675Z,62.00
2017-09-13T20:35:29.872Z,61.60
2017-09-13T20:40:58.021Z,61.10
2017-09-13T20:46:26.179Z,61.10
2017-09-13T20:51:55.297Z,60.90
2017-09-13T20:57:24.235Z,60.10
2017-09-13T21:02:52.404Z,60.00
2017-09-13T21:08:20.602Z,59.70
2017-09-13T21:13:48.774Z,59.60
2017-09-13T21:19:17.694Z,59.60
2017-09-13T21:24:46.632Z,59.60
2017-09-13T21:30:14.801Z,59.60
2017-09-13T21:35:42.967Z,59.60
2017-09-13T21:41:11.099Z,59.60
2017-09-13T21:46:40.018Z,60.10
2017-09-13T21:52:08.167Z,59.50
2017-09-13T21:57:36.328Z,59.50
2017-09-13T22:03:05.436Z,59.40
2017-09-13T22:08:33.616Z,59.30
2017-09-13T22:14:02.538Z,59.20
2017-09-13T22:19:30.701Z,59.20
2017-09-13T22:24:59.560Z,59.00
2017-09-13T22:41:34.858Z,59.80
2017-09-13T22:47:03.063Z,60.30
2017-09-13T22:52:31.235Z,60.60
2017-09-13T22:57:59.431Z,60.90
2017-09-13T23:03:31.927Z,62.00
2017-09-13T23:20:09.409Z,63.00
2017-09-13T23:25:37.565Z,62.80
2017-09-13T23:31:05.711Z,63.30
2017-09-13T23:36:33.892Z,63.60
2017-09-13T23:42:02.082Z,64.00
2017-09-13T23:47:30.276Z,64.30
2017-09-13T23:52:58.452Z,64.60
2017-09-13T23:58:26.671Z,65.00
